sensor_id;sensor_type;location;lat;lon;timestamp;pressure;altitude;pressure_sealevel;temperature;humidity
77879;BME280;67071;51.144;17.050;2023-04-03T00:02:01;101251.91;;;2.44;69.44
77879;BME280;67071;51.144;17.050;2023-04-03T00:04:22;101256.80;;;2.41;69.44
77879;BME280;67071;51.144;17.050;2023-04-03T00:06:37;101264.83;;;2.42;69.44
77879;BME280;67071;51.144;17.050;2023-04-03T00:08:53;101264.66;;;2.42;69.44
77879;BME280;67071;51.144;17.050;2023-04-03T00:11:10;101255.88;;;2.41;69.40
77879;BME280;67071;51.144;17.050;2023-04-03T00:13:25;101266.28;;;2.40;69.40
77879;BME280;67071;51.144;17.050;2023-04-03T00:15:51;101257.51;;;2.39;69.41
77879;BME280;67071;51.144;17.050;2023-04-03T00:18:06;101257.76;;;2.40;69.41
77879;BME280;67071;51.144;17.050;2023-04-03T00:20:20;101261.14;;;2.39;69.42
77879;BME280;67071;51.144;17.050;2023-04-03T00:22:35;101262.15;;;2.39;69.42
77879;BME280;67071;51.144;17.050;2023-04-03T00:24:55;101256.80;;;2.38;69.40
77879;BME280;67071;51.144;17.050;2023-04-03T00:27:11;101265.74;;;2.38;69.37
77879;BME280;67071;51.144;17.050;2023-04-03T00:29:25;101261.23;;;2.38;69.36
77879;BME280;67071;51.144;17.050;2023-04-03T00:31:40;101261.52;;;2.38;69.31
77879;BME280;67071;51.144;17.050;2023-04-03T00:33:55;101260.02;;;2.40;69.31
77879;BME280;67071;51.144;17.050;2023-04-03T00:36:13;101265.99;;;2.42;69.29
77879;BME280;67071;51.144;17.050;2023-04-03T00:38:39;101259.20;;;2.43;69.25
77879;BME280;67071;51.144;17.050;2023-04-03T00:40:56;101256.42;;;2.41;69.23
77879;BME280;67071;51.144;17.050;2023-04-03T00:43:18;101256.59;;;2.39;69.23
77879;BME280;67071;51.144;17.050;2023-04-03T00:45:47;101263.69;;;2.37;69.24
77879;BME280;67071;51.144;17.050;2023-04-03T00:48:07;101268.40;;;2.34;69.24
77879;BME280;67071;51.144;17.050;2023-04-03T00:50:28;101260.67;;;2.31;69.26
77879;BME280;67071;51.144;17.050;2023-04-03T00:52:48;101265.05;;;2.29;69.27
77879;BME280;67071;51.144;17.050;2023-04-03T00:55:08;101270.06;;;2.25;69.28
77879;BME280;67071;51.144;17.050;2023-04-03T00:57:48;101270.62;;;2.16;69.33
77879;BME280;67071;51.144;17.050;2023-04-03T01:00:08;101271.13;;;2.03;69.47
77879;BME280;67071;51.144;17.050;2023-04-03T01:02:26;101274.22;;;2.03;69.60
77879;BME280;67071;51.144;17.050;2023-04-03T01:04:47;101276.41;;;2.06;69.71
77879;BME280;67071;51.144;17.050;2023-04-03T01:07:14;101281.88;;;2.09;69.75
77879;BME280;67071;51.144;17.050;2023-04-03T01:09:32;101278.87;;;2.18;69.79
77879;BME280;67071;51.144;17.050;2023-04-03T01:12:33;101285.59;;;2.21;69.76
77879;BME280;67071;51.144;17.050;2023-04-03T01:14:56;101281.23;;;2.44;69.60
77879;BME280;67071;51.144;17.050;2023-04-03T01:19:47;101282.57;;;2.58;69.29
77879;BME280;67071;51.144;17.050;2023-04-03T10:05:40;101524.84;;;9.83;51.22
77879;BME280;67071;51.144;17.050;2023-04-03T10:34:24;101510.15;;;10.05;47.01
77879;BME280;67071;51.144;17.050;2023-04-03T10:37:11;101506.36;;;10.37;46.91
77879;BME280;67071;51.144;17.050;2023-04-03T11:06:02;101491.91;;;13.48;41.25
77879;BME280;67071;51.144;17.050;2023-04-03T11:08:44;101504.22;;;12.55;41.94
77879;BME280;67071;51.144;17.050;2023-04-03T11:11:05;101503.52;;;11.47;43.08
77879;BME280;67071;51.144;17.050;2023-04-03T11:13:45;101498.88;;;12.83;43.02
77879;BME280;67071;51.144;17.050;2023-04-03T11:16:02;101488.20;;;14.49;40.31
77879;BME280;67071;51.144;17.050;2023-04-03T11:20:31;101505.98;;;13.71;40.11
77879;BME280;67071;51.144;17.050;2023-04-03T11:25:24;101495.00;;;14.08;40.25
77879;BME280;67071;51.144;17.050;2023-04-03T11:36:56;0.00;;;0.00;0.00
77879;BME280;67071;51.144;17.050;2023-04-03T11:44:05;101494.16;;;15.07;36.76
77879;BME280;67071;51.144;17.050;2023-04-03T11:51:53;0.00;;;0.00;0.00
77879;BME280;67071;51.144;17.050;2023-04-03T11:54:36;0.00;;;0.00;0.00
77879;BME280;67071;51.144;17.050;2023-04-03T11:59:37;0.00;;;0.00;0.00
77879;BME280;67071;51.144;17.050;2023-04-03T12:02:36;0.00;;;0.00;0.00
77879;BME280;67071;51.144;17.050;2023-04-03T12:05:25;0.00;;;0.00;0.00
77879;BME280;67071;51.144;17.050;2023-04-03T12:11:40;0.00;;;0.00;0.00
77879;BME280;67071;51.144;17.050;2023-04-03T12:14:05;0.00;;;0.00;0.00
77879;BME280;67071;51.144;17.050;2023-04-03T12:19:59;0.00;;;0.00;0.00
77879;BME280;67071;51.144;17.050;2023-04-03T12:25:50;0.00;;;0.00;0.00
77879;BME280;67071;51.144;17.050;2023-04-03T12:28:12;0.00;;;0.00;0.00
77879;BME280;67071;51.144;17.050;2023-04-03T12:48:24;0.00;;;0.00;0.00
77879;BME280;67071;51.144;17.050;2023-04-03T12:50:50;0.00;;;0.00;0.00
77879;BME280;67071;51.144;17.050;2023-04-03T12:53:15;0.00;;;0.00;0.00
77879;BME280;67071;51.144;17.050;2023-04-03T12:55:38;0.00;;;0.00;0.00
77879;BME280;67071;51.144;17.050;2023-04-03T12:58:20;0.00;;;0.00;0.00
77879;BME280;67071;51.144;17.050;2023-04-03T13:01:41;0.00;;;0.00;0.00
77879;BME280;67071;51.144;17.050;2023-04-03T13:06:01;0.00;;;0.00;0.00
77879;BME280;67071;51.144;17.050;2023-04-03T13:08:23;0.00;;;0.00;0.00
77879;BME280;67071;51.144;17.050;2023-04-03T13:13:23;0.00;;;0.00;0.00
77879;BME280;67071;51.144;17.050;2023-04-03T13:15:54;0.00;;;0.00;0.00
77879;BME280;67071;51.144;17.050;2023-04-03T13:18:25;0.00;;;0.00;0.00
77879;BME280;67071;51.144;17.050;2023-04-03T13:20:48;0.00;;;0.00;0.00
77879;BME280;67071;51.144;17.050;2023-04-03T13:23:08;101456.34;;;20.98;25.20
77879;BME280;67071;51.144;17.050;2023-04-03T13:25:45;101450.34;;;23.25;23.43
77879;BME280;67071;51.144;17.050;2023-04-03T13:28:13;0.00;;;0.00;0.00
77879;BME280;67071;51.144;17.050;2023-04-03T13:30:37;0.00;;;0.00;0.00
77879;BME280;67071;51.144;17.050;2023-04-03T13:33:04;0.00;;;0.00;0.00
77879;BME280;67071;51.144;17.050;2023-04-03T13:35:38;0.00;;;0.00;0.00
77879;BME280;67071;51.144;17.050;2023-04-03T13:40:28;0.00;;;0.00;0.00
77879;BME280;67071;51.144;17.050;2023-04-03T13:43:02;0.00;;;0.00;0.00
77879;BME280;67071;51.144;17.050;2023-04-03T13:45:30;0.00;;;0.00;0.00
77879;BME280;67071;51.144;17.050;2023-04-03T13:47:50;101446.52;;;20.95;24.52
77879;BME280;67071;51.144;17.050;2023-04-03T13:50:14;101450.60;;;18.65;25.92
77879;BME280;67071;51.144;17.050;2023-04-03T13:52:41;101441.61;;;19.54;24.83
77879;BME280;67071;51.144;17.050;2023-04-03T13:55:36;0.00;;;0.00;0.00
77879;BME280;67071;51.144;17.050;2023-04-03T13:58:21;0.00;;;0.00;0.00
77879;BME280;67071;51.144;17.050;2023-04-03T14:00:48;101437.71;;;19.21;24.25
77879;BME280;67071;51.144;17.050;2023-04-03T14:05:32;101443.27;;;16.55;27.65
77879;BME280;67071;51.144;17.050;2023-04-03T14:08:34;0.00;;;0.00;0.00
77879;BME280;67071;51.144;17.050;2023-04-03T14:10:55;0.00;;;0.00;0.00
77879;BME280;67071;51.144;17.050;2023-04-03T14:13:20;0.00;;;0.00;0.00
77879;BME280;67071;51.144;17.050;2023-04-03T14:16:30;0.00;;;0.00;0.00
77879;BME280;67071;51.144;17.050;2023-04-03T14:18:58;0.00;;;0.00;0.00
77879;BME280;67071;51.144;17.050;2023-04-03T14:21:21;0.00;;;0.00;0.00
77879;BME280;67071;51.144;17.050;2023-04-03T14:23:44;0.00;;;0.00;0.00
77879;BME280;67071;51.144;17.050;2023-04-03T14:26:14;0.00;;;0.00;0.00
77879;BME280;67071;51.144;17.050;2023-04-03T14:28:37;0.00;;;0.00;0.00
77879;BME280;67071;51.144;17.050;2023-04-03T14:31:00;0.00;;;0.00;0.00
77879;BME280;67071;51.144;17.050;2023-04-03T14:33:37;0.00;;;0.00;0.00
77879;BME280;67071;51.144;17.050;2023-04-03T14:36:08;0.00;;;0.00;0.00
77879;BME280;67071;51.144;17.050;2023-04-03T14:38:53;0.00;;;0.00;0.00
77879;BME280;67071;51.144;17.050;2023-04-03T14:41:19;0.00;;;0.00;0.00
77879;BME280;67071;51.144;17.050;2023-04-03T14:43:41;0.00;;;0.00;0.00
77879;BME280;67071;51.144;17.050;2023-04-03T14:46:17;0.00;;;0.00;0.00
77879;BME280;67071;51.144;17.050;2023-04-03T14:48:41;101438.39;;;-139.81;24.37
77879;BME280;67071;51.144;17.050;2023-04-03T14:50:58;101431.74;;;16.72;25.12
77879;BME280;67071;51.144;17.050;2023-04-03T14:53:15;101436.16;;;15.73;26.59
77879;BME280;67071;51.144;17.050;2023-04-03T14:55:30;101429.27;;;15.93;26.35
77879;BME280;67071;51.144;17.050;2023-04-03T14:57:45;101435.30;;;14.72;27.66
77879;BME280;67071;51.144;17.050;2023-04-03T15:00:03;101439.70;;;13.66;28.99
77879;BME280;67071;51.144;17.050;2023-04-03T15:02:25;101449.52;;;12.78;29.87
77879;BME280;67071;51.144;17.050;2023-04-03T15:04:48;101443.18;;;12.25;30.81
77879;BME280;67071;51.144;17.050;2023-04-03T15:07:15;101443.63;;;14.38;29.55
77879;BME280;67071;51.144;17.050;2023-04-03T15:11:14;0.00;;;0.00;0.00
77879;BME280;67071;51.144;17.050;2023-04-03T15:13:28;101434.24;;;14.35;28.07
77879;BME280;67071;51.144;17.050;2023-04-03T15:15:43;101435.87;;;13.18;29.38
77879;BME280;67071;51.144;17.050;2023-04-03T15:17:58;101440.13;;;12.13;30.40
77879;BME280;67071;51.144;17.050;2023-04-03T15:20:19;101442.51;;;11.27;31.18
77879;BME280;67071;51.144;17.050;2023-04-03T15:22:34;101450.43;;;10.78;32.08
77879;BME280;67071;51.144;17.050;2023-04-03T15:24:48;101449.51;;;10.39;32.54
77879;BME280;67071;51.144;17.050;2023-04-03T15:27:05;101446.20;;;10.39;32.75
77879;BME280;67071;51.144;17.050;2023-04-03T15:29:20;101452.79;;;12.89;31.12
77879;BME280;67071;51.144;17.050;2023-04-03T15:31:36;101448.24;;;13.01;30.40
77879;BME280;67071;51.144;17.050;2023-04-03T15:33:51;101442.84;;;12.36;31.09
77879;BME280;67071;51.144;17.050;2023-04-03T15:36:06;101449.73;;;11.49;31.81
77879;BME280;67071;51.144;17.050;2023-04-03T15:38:20;101450.18;;;10.59;32.86
77879;BME280;67071;51.144;17.050;2023-04-03T15:40:36;101457.34;;;9.87;33.84
77879;BME280;67071;51.144;17.050;2023-04-03T15:42:54;101459.09;;;9.33;34.54
77879;BME280;67071;51.144;17.050;2023-04-03T15:45:10;101463.71;;;8.92;35.22
77879;BME280;67071;51.144;17.050;2023-04-03T15:47:32;101465.48;;;8.91;35.69
77879;BME280;67071;51.144;17.050;2023-04-03T15:49:47;101464.00;;;8.91;35.91
77879;BME280;67071;51.144;17.050;2023-04-03T15:52:03;101461.04;;;8.77;35.89
77879;BME280;67071;51.144;17.050;2023-04-03T15:54:18;101462.31;;;8.67;36.15
77879;BME280;67071;51.144;17.050;2023-04-03T15:56:33;101472.09;;;8.54;36.45
77879;BME280;67071;51.144;17.050;2023-04-03T15:58:48;101469.70;;;8.42;36.83
77879;BME280;67071;51.144;17.050;2023-04-03T16:01:03;101465.41;;;8.19;37.16
77879;BME280;67071;51.144;17.050;2023-04-03T16:03:20;101461.78;;;7.86;37.42
77879;BME280;67071;51.144;17.050;2023-04-03T16:05:38;101464.80;;;7.56;37.78
77879;BME280;67071;51.144;17.050;2023-04-03T16:07:54;101474.83;;;7.40;38.16
77879;BME280;67071;51.144;17.050;2023-04-03T16:10:33;101460.33;;;7.29;38.51
77879;BME280;67071;51.144;17.050;2023-04-03T16:12:48;101465.91;;;7.28;38.72
77879;BME280;67071;51.144;17.050;2023-04-03T16:15:06;101465.49;;;7.37;38.79
77879;BME280;67071;51.144;17.050;2023-04-03T16:17:22;101468.45;;;7.40;38.71
77879;BME280;67071;51.144;17.050;2023-04-03T16:19:49;101475.59;;;7.54;38.76
77879;BME280;67071;51.144;17.050;2023-04-03T16:22:03;101469.18;;;7.69;38.70
77879;BME280;67071;51.144;17.050;2023-04-03T16:24:20;101465.16;;;7.88;38.67
77879;BME280;67071;51.144;17.050;2023-04-03T16:26:35;101474.73;;;7.85;38.67
77879;BME280;67071;51.144;17.050;2023-04-03T16:28:50;101469.52;;;7.70;38.95
77879;BME280;67071;51.144;17.050;2023-04-03T16:31:07;101473.98;;;7.43;39.18
77879;BME280;67071;51.144;17.050;2023-04-03T16:33:22;101476.16;;;7.23;39.47
77879;BME280;67071;51.144;17.050;2023-04-03T16:35:38;101479.50;;;6.96;39.71
77879;BME280;67071;51.144;17.050;2023-04-03T16:38:10;101476.12;;;6.87;40.10
77879;BME280;67071;51.144;17.050;2023-04-03T16:40:25;101481.63;;;6.75;40.26
77879;BME280;67071;51.144;17.050;2023-04-03T16:42:41;101476.41;;;6.65;40.39
77879;BME280;67071;51.144;17.050;2023-04-03T16:44:55;101484.27;;;6.50;40.52
77879;BME280;67071;51.144;17.050;2023-04-03T16:47:19;101486.74;;;6.37;40.67
77879;BME280;67071;51.144;17.050;2023-04-03T16:49:35;101491.64;;;6.30;40.89
77879;BME280;67071;51.144;17.050;2023-04-03T16:51:50;101487.31;;;6.22;41.08
77879;BME280;67071;51.144;17.050;2023-04-03T16:54:06;101491.82;;;6.13;41.22
77879;BME280;67071;51.144;17.050;2023-04-03T16:56:26;101492.16;;;6.04;41.37
77879;BME280;67071;51.144;17.050;2023-04-03T16:58:42;101493.38;;;6.08;41.56
77879;BME280;67071;51.144;17.050;2023-04-03T17:00:56;101491.11;;;6.08;41.68
77879;BME280;67071;51.144;17.050;2023-04-03T17:03:14;101500.16;;;6.01;41.79
77879;BME280;67071;51.144;17.050;2023-04-03T17:05:35;101495.00;;;5.97;41.96
77879;BME280;67071;51.144;17.050;2023-04-03T17:07:51;101496.33;;;5.94;42.11
77879;BME280;67071;51.144;17.050;2023-04-03T17:10:07;101496.95;;;5.95;42.27
77879;BME280;67071;51.144;17.050;2023-04-03T17:12:23;101494.28;;;5.92;42.41
77879;BME280;67071;51.144;17.050;2023-04-03T17:14:38;101495.84;;;5.87;42.59
77879;BME280;67071;51.144;17.050;2023-04-03T17:16:53;101501.72;;;5.83;42.72
77879;BME280;67071;51.144;17.050;2023-04-03T17:19:08;101497.93;;;5.78;42.83
77879;BME280;67071;51.144;17.050;2023-04-03T17:21:23;101497.50;;;5.75;42.94
77879;BME280;67071;51.144;17.050;2023-04-03T17:23:39;101496.41;;;5.70;43.05
77879;BME280;67071;51.144;17.050;2023-04-03T17:25:55;101500.55;;;5.65;43.16
77879;BME280;67071;51.144;17.050;2023-04-03T17:28:13;101503.87;;;5.61;43.27
77879;BME280;67071;51.144;17.050;2023-04-03T17:30:27;101505.83;;;5.62;43.40
77879;BME280;67071;51.144;17.050;2023-04-03T17:32:42;101502.74;;;5.61;43.47
77879;BME280;67071;51.144;17.050;2023-04-03T17:34:57;101509.96;;;5.57;43.59
77879;BME280;67071;51.144;17.050;2023-04-03T17:37:12;101511.33;;;5.52;43.70
77879;BME280;67071;51.144;17.050;2023-04-03T17:39:28;101506.16;;;5.52;43.80
77879;BME280;67071;51.144;17.050;2023-04-03T17:41:49;101502.95;;;5.43;43.89
77879;BME280;67071;51.144;17.050;2023-04-03T17:44:22;101510.11;;;5.32;44.07
77879;BME280;67071;51.144;17.050;2023-04-03T17:46:37;101509.19;;;5.32;44.27
77879;BME280;67071;51.144;17.050;2023-04-03T17:48:55;101508.16;;;5.30;44.38
77879;BME280;67071;51.144;17.050;2023-04-03T17:51:16;101515.09;;;5.29;44.46
77879;BME280;67071;51.144;17.050;2023-04-03T17:53:32;101510.75;;;5.25;44.53
77879;BME280;67071;51.144;17.050;2023-04-03T17:55:50;101504.55;;;5.21;44.63
77879;BME280;67071;51.144;17.050;2023-04-03T17:58:07;101516.53;;;5.12;44.72
77879;BME280;67071;51.144;17.050;2023-04-03T18:00:31;101517.48;;;5.09;44.88
77879;BME280;67071;51.144;17.050;2023-04-03T18:02:47;101518.51;;;5.04;45.00
77879;BME280;67071;51.144;17.050;2023-04-03T18:05:06;101512.20;;;5.04;45.10
77879;BME280;67071;51.144;17.050;2023-04-03T18:07:23;101514.98;;;5.03;45.17
77879;BME280;67071;51.144;17.050;2023-04-03T18:09:40;101505.27;;;5.06;45.24
77879;BME280;67071;51.144;17.050;2023-04-03T18:11:56;101508.79;;;5.06;45.29
77879;BME280;67071;51.144;17.050;2023-04-03T18:14:14;101514.05;;;5.07;45.33
77879;BME280;67071;51.144;17.050;2023-04-03T18:16:30;101517.45;;;5.06;45.39
77879;BME280;67071;51.144;17.050;2023-04-03T18:18:45;101519.13;;;5.07;45.44
77879;BME280;67071;51.144;17.050;2023-04-03T18:21:03;101515.80;;;5.07;45.52
77879;BME280;67071;51.144;17.050;2023-04-03T18:23:18;101514.87;;;5.02;45.53
77879;BME280;67071;51.144;17.050;2023-04-03T18:25:37;101515.28;;;5.03;45.67
77879;BME280;67071;51.144;17.050;2023-04-03T18:27:53;101513.43;;;4.96;45.73
77879;BME280;67071;51.144;17.050;2023-04-03T18:30:11;101518.70;;;4.93;45.80
77879;BME280;67071;51.144;17.050;2023-04-03T18:32:26;101519.52;;;4.93;45.93
77879;BME280;67071;51.144;17.050;2023-04-03T18:34:42;101518.91;;;4.91;45.98
77879;BME280;67071;51.144;17.050;2023-04-03T18:37:03;101516.95;;;4.90;46.07
77879;BME280;67071;51.144;17.050;2023-04-03T18:39:19;101517.26;;;4.84;46.14
77879;BME280;67071;51.144;17.050;2023-04-03T18:41:36;101516.52;;;4.79;46.24
77879;BME280;67071;51.144;17.050;2023-04-03T18:44:00;101517.77;;;4.79;46.38
77879;BME280;67071;51.144;17.050;2023-04-03T18:46:16;101516.61;;;4.79;46.45
77879;BME280;67071;51.144;17.050;2023-04-03T18:48:35;101518.59;;;4.76;46.52
77879;BME280;67071;51.144;17.050;2023-04-03T18:50:54;101521.99;;;4.74;46.60
77879;BME280;67071;51.144;17.050;2023-04-03T18:53:10;101521.27;;;4.76;46.70
77879;BME280;67071;51.144;17.050;2023-04-03T18:55:25;101523.95;;;4.77;46.74
77879;BME280;67071;51.144;17.050;2023-04-03T18:57:40;101514.97;;;4.77;46.81
77879;BME280;67071;51.144;17.050;2023-04-03T19:00:03;101523.66;;;4.76;46.88
77879;BME280;67071;51.144;17.050;2023-04-03T19:02:21;101522.91;;;4.75;46.96
77879;BME280;67071;51.144;17.050;2023-04-03T19:04:39;101517.03;;;4.73;47.04
77879;BME280;67071;51.144;17.050;2023-04-03T19:06:54;101511.86;;;4.68;47.09
77879;BME280;67071;51.144;17.050;2023-04-03T19:09:10;101515.98;;;4.66;47.18
77879;BME280;67071;51.144;17.050;2023-04-03T19:11:27;101517.01;;;4.63;47.25
77879;BME280;67071;51.144;17.050;2023-04-03T19:13:46;101514.61;;;4.59;47.36
77879;BME280;67071;51.144;17.050;2023-04-03T19:16:01;101517.01;;;4.62;47.45
77879;BME280;67071;51.144;17.050;2023-04-03T19:18:16;101515.99;;;4.63;47.51
77879;BME280;67071;51.144;17.050;2023-04-03T19:20:32;101515.86;;;4.64;47.57
77879;BME280;67071;51.144;17.050;2023-04-03T19:22:47;101515.99;;;4.64;47.59
77879;BME280;67071;51.144;17.050;2023-04-03T19:25:05;101516.59;;;4.58;47.65
77879;BME280;67071;51.144;17.050;2023-04-03T19:27:21;101515.55;;;4.58;47.75
77879;BME280;67071;51.144;17.050;2023-04-03T19:29:47;101520.71;;;4.57;47.85
77879;BME280;67071;51.144;17.050;2023-04-03T19:32:03;101519.27;;;4.58;47.89
77879;BME280;67071;51.144;17.050;2023-04-03T19:34:18;101524.55;;;4.59;47.94
77879;BME280;67071;51.144;17.050;2023-04-03T19:36:35;101521.86;;;4.59;47.98
77879;BME280;67071;51.144;17.050;2023-04-03T19:38:50;101519.69;;;4.59;48.01
77879;BME280;67071;51.144;17.050;2023-04-03T19:41:17;101521.75;;;4.53;48.07
77879;BME280;67071;51.144;17.050;2023-04-03T19:43:33;101522.98;;;4.54;48.17
77879;BME280;67071;51.144;17.050;2023-04-03T19:45:49;101516.27;;;4.52;48.24
77879;BME280;67071;51.144;17.050;2023-04-03T19:48:07;101517.91;;;4.49;48.31
77879;BME280;67071;51.144;17.050;2023-04-03T19:50:22;101525.14;;;4.45;48.39
77879;BME280;67071;51.144;17.050;2023-04-03T19:52:37;101525.10;;;4.42;48.50
77879;BME280;67071;51.144;17.050;2023-04-03T19:54:59;101521.50;;;4.41;48.61
77879;BME280;67071;51.144;17.050;2023-04-03T19:57:15;101519.41;;;4.37;48.70
77879;BME280;67071;51.144;17.050;2023-04-03T19:59:31;101521.09;;;4.35;48.80
77879;BME280;67071;51.144;17.050;2023-04-03T20:01:46;101522.42;;;4.35;48.91
77879;BME280;67071;51.144;17.050;2023-04-03T20:04:08;101522.02;;;4.35;48.97
77879;BME280;67071;51.144;17.050;2023-04-03T20:06:23;101523.24;;;4.35;49.04
77879;BME280;67071;51.144;17.050;2023-04-03T20:08:39;101526.13;;;4.34;49.12
77879;BME280;67071;51.144;17.050;2023-04-03T20:10:56;101521.77;;;4.34;49.18
77879;BME280;67071;51.144;17.050;2023-04-03T20:13:12;101525.51;;;4.35;49.23
77879;BME280;67071;51.144;17.050;2023-04-03T20:15:39;101524.28;;;4.35;49.24
77879;BME280;67071;51.144;17.050;2023-04-03T20:17:55;101527.15;;;4.34;49.32
77879;BME280;67071;51.144;17.050;2023-04-03T20:20:12;101526.21;;;4.30;49.35
77879;BME280;67071;51.144;17.050;2023-04-03T20:22:28;101527.35;;;4.28;49.42
77879;BME280;67071;51.144;17.050;2023-04-03T20:24:48;101526.52;;;4.28;49.49
77879;BME280;67071;51.144;17.050;2023-04-03T20:27:04;101528.99;;;4.27;49.53
77879;BME280;67071;51.144;17.050;2023-04-03T20:29:19;101536.80;;;4.22;49.56
77879;BME280;67071;51.144;17.050;2023-04-03T20:31:36;101529.76;;;4.11;49.62
77879;BME280;67071;51.144;17.050;2023-04-03T20:33:53;101535.38;;;3.98;49.76
77879;BME280;67071;51.144;17.050;2023-04-03T20:36:16;101531.48;;;3.84;49.95
77879;BME280;67071;51.144;17.050;2023-04-03T20:38:31;101532.86;;;3.74;50.10
77879;BME280;67071;51.144;17.050;2023-04-03T20:40:51;101533.86;;;3.66;50.28
77879;BME280;67071;51.144;17.050;2023-04-03T20:43:08;101528.84;;;3.56;50.45
77879;BME280;67071;51.144;17.050;2023-04-03T20:45:23;101527.86;;;3.48;50.59
77879;BME280;67071;51.144;17.050;2023-04-03T20:47:39;101534.49;;;3.37;50.74
77879;BME280;67071;51.144;17.050;2023-04-03T20:49:54;101533.18;;;3.27;50.87
77879;BME280;67071;51.144;17.050;2023-04-03T20:52:10;101528.38;;;3.19;51.05
77879;BME280;67071;51.144;17.050;2023-04-03T20:54:26;101525.71;;;3.08;51.17
77879;BME280;67071;51.144;17.050;2023-04-03T20:56:43;101529.10;;;2.96;51.30
77879;BME280;67071;51.144;17.050;2023-04-03T20:59:03;101532.19;;;2.86;51.45
77879;BME280;67071;51.144;17.050;2023-04-03T21:01:28;101527.18;;;2.75;51.63
77879;BME280;67071;51.144;17.050;2023-04-03T21:03:45;101529.00;;;2.65;51.75
77879;BME280;67071;51.144;17.050;2023-04-03T21:20:46;101532.27;;;2.07;52.61
77879;BME280;67071;51.144;17.050;2023-04-03T21:23:01;101529.40;;;2.01;52.79
77879;BME280;67071;51.144;17.050;2023-04-03T21:25:16;101529.76;;;1.95;52.90
77879;BME280;67071;51.144;17.050;2023-04-03T21:27:30;101526.88;;;1.89;53.01
77879;BME280;67071;51.144;17.050;2023-04-03T21:29:45;101535.23;;;1.83;53.11
77879;BME280;67071;51.144;17.050;2023-04-03T21:32:03;101537.84;;;1.75;53.22
77879;BME280;67071;51.144;17.050;2023-04-03T21:34:21;101536.84;;;1.72;53.31
77879;BME280;67071;51.144;17.050;2023-04-03T21:36:40;101532.05;;;1.69;53.34
77879;BME280;67071;51.144;17.050;2023-04-03T21:38:59;101536.38;;;1.62;53.40
77879;BME280;67071;51.144;17.050;2023-04-03T21:41:15;101530.70;;;1.54;53.46
77879;BME280;67071;51.144;17.050;2023-04-03T21:43:30;101532.97;;;1.47;53.54
77879;BME280;67071;51.144;17.050;2023-04-03T21:45:48;101535.38;;;1.40;53.63
77879;BME280;67071;51.144;17.050;2023-04-03T21:48:09;101536.70;;;1.34;53.70
77879;BME280;67071;51.144;17.050;2023-04-03T21:50:26;101541.49;;;1.31;53.80
77879;BME280;67071;51.144;17.050;2023-04-03T21:52:41;101535.13;;;1.25;53.87
77879;BME280;67071;51.144;17.050;2023-04-03T21:54:57;101539.86;;;1.19;53.95
77879;BME280;67071;51.144;17.050;2023-04-03T21:57:13;101535.39;;;1.11;54.01
77879;BME280;67071;51.144;17.050;2023-04-03T21:59:28;101538.15;;;1.03;54.09
77879;BME280;67071;51.144;17.050;2023-04-03T22:01:44;101536.70;;;0.96;54.19
77879;BME280;67071;51.144;17.050;2023-04-03T22:04:00;101541.95;;;0.90;54.27
77879;BME280;67071;51.144;17.050;2023-04-03T22:06:16;101538.24;;;0.84;54.37
77879;BME280;67071;51.144;17.050;2023-04-03T22:08:31;101540.41;;;0.80;54.46
77879;BME280;67071;51.144;17.050;2023-04-03T22:10:47;101539.30;;;0.75;54.53
77879;BME280;67071;51.144;17.050;2023-04-03T22:13:02;101547.02;;;0.69;54.59
77879;BME280;67071;51.144;17.050;2023-04-03T22:15:17;101545.19;;;0.66;54.68
77879;BME280;67071;51.144;17.050;2023-04-03T22:17:34;101540.38;;;0.61;54.75
77879;BME280;67071;51.144;17.050;2023-04-03T22:19:50;101544.77;;;0.54;54.80
77879;BME280;67071;51.144;17.050;2023-04-03T22:22:07;101548.39;;;0.50;54.88
77879;BME280;67071;51.144;17.050;2023-04-03T22:24:22;101549.09;;;0.44;54.97
77879;BME280;67071;51.144;17.050;2023-04-03T22:26:43;101546.88;;;0.40;55.05
77879;BME280;67071;51.144;17.050;2023-04-03T22:28:58;101553.80;;;0.37;55.16
77879;BME280;67071;51.144;17.050;2023-04-03T22:31:14;101550.30;;;0.37;55.22
77879;BME280;67071;51.144;17.050;2023-04-03T22:33:30;101550.66;;;0.34;55.35
77879;BME280;67071;51.144;17.050;2023-04-03T22:35:46;101556.04;;;0.36;55.36
77879;BME280;67071;51.144;17.050;2023-04-03T22:38:01;101551.60;;;0.41;55.40
77879;BME280;67071;51.144;17.050;2023-04-03T22:40:19;101553.02;;;0.44;55.38
77879;BME280;67071;51.144;17.050;2023-04-03T22:42:34;101554.39;;;0.47;55.36
77879;BME280;67071;51.144;17.050;2023-04-03T22:44:49;101556.71;;;0.54;55.38
77879;BME280;67071;51.144;17.050;2023-04-03T22:47:04;101557.09;;;0.55;55.33
77879;BME280;67071;51.144;17.050;2023-04-03T22:49:20;101563.76;;;0.55;55.30
77879;BME280;67071;51.144;17.050;2023-04-03T22:51:36;101559.19;;;0.56;55.30
77879;BME280;67071;51.144;17.050;2023-04-03T22:53:51;101558.72;;;0.52;55.29
77879;BME280;67071;51.144;17.050;2023-04-03T22:56:11;101558.55;;;0.50;55.30
77879;BME280;67071;51.144;17.050;2023-04-03T22:58:28;101559.39;;;0.51;55.36
77879;BME280;67071;51.144;17.050;2023-04-03T23:00:43;101559.71;;;0.52;55.37
77879;BME280;67071;51.144;17.050;2023-04-03T23:02:58;101557.20;;;0.54;55.41
77879;BME280;67071;51.144;17.050;2023-04-03T23:05:15;101558.30;;;0.53;55.38
77879;BME280;67071;51.144;17.050;2023-04-03T23:07:30;101560.55;;;0.52;55.40
77879;BME280;67071;51.144;17.050;2023-04-03T23:09:45;101561.42;;;0.56;55.47
77879;BME280;67071;51.144;17.050;2023-04-03T23:12:01;101557.72;;;0.61;55.48
77879;BME280;67071;51.144;17.050;2023-04-03T23:14:16;101550.76;;;0.67;55.47
77879;BME280;67071;51.144;17.050;2023-04-03T23:16:45;101558.38;;;0.74;55.44
77879;BME280;67071;51.144;17.050;2023-04-03T23:19:00;101559.85;;;0.80;55.42
77879;BME280;67071;51.144;17.050;2023-04-03T23:21:15;101552.11;;;0.86;55.37